createdAt,value
2022-11-07T07:25:26.078Z,1019.13
2022-11-07T07:25:56.042Z,1019.14
2022-11-07T07:26:27.286Z,1019.14
2022-11-07T07:26:57.837Z,1019.18
2022-11-07T07:27:28.361Z,1019.16
2022-11-07T07:27:59.388Z,1019.14
2022-11-07T07:28:29.923Z,1019.15
2022-11-07T07:29:00.966Z,1019.13
2022-11-07T07:29:31.474Z,1019.13
2022-11-07T07:30:02.027Z,1019.18
2022-11-07T07:30:33.046Z,1019.15
2022-11-07T07:31:04.074Z,1019.13
2022-11-07T07:31:34.607Z,1019.13
2022-11-07T07:32:05.112Z,1019.14
2022-11-07T07:32:35.672Z,1019.15
2022-11-07T07:33:06.709Z,1019.12
2022-11-07T07:33:37.613Z,1019.11
2022-11-07T07:34:08.645Z,1019.11
2022-11-07T07:34:39.170Z,1019.13
2022-11-07T07:35:09.717Z,1019.12
2022-11-07T07:35:40.239Z,1019.15
2022-11-07T07:36:10.798Z,1019.15
2022-11-07T07:36:41.316Z,1019.16
2022-11-07T07:37:11.834Z,1019.16
2022-11-07T07:37:42.864Z,1019.13
2022-11-07T07:38:13.887Z,1019.15
2022-11-07T07:38:44.431Z,1019.13
2022-11-07T07:39:15.029Z,1019.15
2022-11-07T07:39:45.527Z,1019.18
2022-11-07T07:40:16.056Z,1019.16
2022-11-07T07:40:47.192Z,1019.15
2022-11-07T07:41:17.696Z,1019.18
2022-11-07T07:41:48.229Z,1019.18
2022-11-07T07:42:19.261Z,1019.22
2022-11-07T07:42:49.795Z,1019.21
2022-11-07T07:43:20.316Z,1019.23
2022-11-07T07:43:51.337Z,1019.25
2022-11-07T07:44:22.365Z,1019.27
2022-11-07T07:44:52.907Z,1019.26
2022-11-07T07:45:23.423Z,1019.29
2022-11-07T07:45:54.435Z,1019.30
2022-11-07T07:46:25.493Z,1019.34
2022-11-07T07:46:56.049Z,1019.33
2022-11-07T07:47:26.588Z,1019.31
2022-11-07T07:47:57.117Z,1019.32
2022-11-07T07:48:27.754Z,1019.35
2022-11-07T07:48:58.679Z,1019.34
2022-11-07T07:49:29.046Z,1019.36
2022-11-07T07:49:59.958Z,1019.36
2022-11-07T07:50:30.462Z,1019.36
2022-11-07T07:51:00.983Z,1019.39
2022-11-07T07:51:32.008Z,1019.40
2022-11-07T07:52:03.032Z,1019.39
2022-11-07T07:52:34.088Z,1019.38
2022-11-07T07:53:08.878Z,1019.42
2022-11-07T07:53:35.641Z,1019.40
2022-11-07T07:54:06.428Z,1019.44
2022-11-07T07:54:36.917Z,1019.43
2022-11-07T07:55:07.954Z,1019.43
2022-11-07T07:55:38.476Z,1019.44
2022-11-07T07:56:09.203Z,1019.40
2022-11-07T07:56:39.706Z,1019.41
2022-11-07T07:57:10.220Z,1019.41
2022-11-07T07:57:40.751Z,1019.39
2022-11-07T07:58:11.789Z,1019.41
2022-11-07T07:58:42.325Z,1019.41
2022-11-07T07:59:12.864Z,1019.39
2022-11-07T07:59:43.354Z,1019.40
2022-11-07T08:00:14.389Z,1019.44
2022-11-07T08:00:44.992Z,1019.44
2022-11-07T08:01:15.705Z,1019.45
2022-11-07T08:01:48.788Z,1019.46
2022-11-07T08:02:17.304Z,1019.47
2022-11-07T08:02:47.851Z,1019.46
2022-11-07T08:03:19.427Z,1019.45
2022-11-07T08:04:01.427Z,1019.46
2022-11-07T08:04:20.319Z,1019.40
2022-11-07T08:04:50.849Z,1019.42
2022-11-07T08:05:21.886Z,1019.43
2022-11-07T08:05:52.416Z,1019.39
2022-11-07T08:06:22.938Z,1019.41
2022-11-07T08:06:53.940Z,1019.41
2022-11-07T08:07:24.969Z,1019.41
2022-11-07T08:07:55.496Z,1019.43
2022-11-07T08:08:26.498Z,1019.43
2022-11-07T08:08:57.019Z,1019.45
2022-11-07T08:09:27.570Z,1019.45
2022-11-07T08:10:01.988Z,1019.45
2022-11-07T08:10:42.029Z,1019.46
2022-11-07T08:10:59.818Z,1019.48
2022-11-07T08:11:30.574Z,1019.47
2022-11-07T08:12:01.056Z,1019.45
2022-11-07T08:12:32.051Z,1019.43
2022-11-07T08:13:02.580Z,1019.46
2022-11-07T08:13:33.104Z,1019.45
2022-11-07T08:14:04.142Z,1019.42
2022-11-07T08:14:34.660Z,1019.42
2022-11-07T08:15:05.204Z,1019.46
2022-11-07T08:15:35.739Z,1019.43
2022-11-07T08:16:06.766Z,1019.41
2022-11-07T08:16:37.788Z,1019.39
2022-11-07T08:17:08.329Z,1019.43
2022-11-07T08:17:38.836Z,1019.43
2022-11-07T08:18:09.872Z,1019.44
2022-11-07T08:18:40.918Z,1019.43
2022-11-07T08:19:11.945Z,1019.43
2022-11-07T08:19:42.971Z,1019.44
2022-11-07T08:20:13.992Z,1019.43
2022-11-07T08:20:44.546Z,1019.44
2022-11-07T08:21:15.044Z,1019.45
2022-11-07T08:21:46.333Z,1019.44
2022-11-07T08:22:16.864Z,1019.46
2022-11-07T08:22:47.384Z,1019.45
2022-11-07T08:23:18.712Z,1019.45
2022-11-07T08:23:48.960Z,1019.46
2022-11-07T08:24:19.483Z,1019.49
2022-11-07T08:24:50.019Z,1019.48
2022-11-07T08:25:20.553Z,1019.48
2022-11-07T08:25:51.552Z,1019.47
2022-11-07T08:26:22.597Z,1019.45
2022-11-07T08:26:53.236Z,1019.46
2022-11-07T08:27:23.726Z,1019.46
2022-11-07T08:27:54.748Z,1019.46
2022-11-07T08:28:25.786Z,1019.49
2022-11-07T08:28:56.823Z,1019.46
2022-11-07T08:29:27.363Z,1019.50
2022-11-07T08:29:57.886Z,1019.50
2022-11-07T08:30:28.419Z,1019.53
2022-11-07T08:30:59.461Z,1019.51
2022-11-07T08:31:29.979Z,1019.52
2022-11-07T08:32:01.013Z,1019.53
2022-11-07T08:32:32.047Z,1019.54
2022-11-07T08:33:03.083Z,1019.57
2022-11-07T08:33:34.170Z,1019.56
2022-11-07T08:34:04.729Z,1019.53
2022-11-07T08:34:35.264Z,1019.53
2022-11-07T08:35:06.291Z,1019.53
2022-11-07T08:35:42.056Z,1019.51
2022-11-07T08:36:07.537Z,1019.51
2022-11-07T08:36:38.766Z,1019.52
2022-11-07T08:37:09.329Z,1019.51
2022-11-07T08:37:39.823Z,1019.50
2022-11-07T08:38:10.397Z,1019.52
2022-11-07T08:38:40.900Z,1019.52
2022-11-07T08:39:11.425Z,1019.52
2022-11-07T08:39:41.946Z,1019.52
2022-11-07T08:40:12.989Z,1019.51
2022-11-07T08:40:44.010Z,1019.52
2022-11-07T08:41:19.589Z,1019.49
2022-11-07T08:41:45.771Z,1019.48
2022-11-07T08:42:16.356Z,1019.49
2022-11-07T08:42:46.841Z,1019.50
2022-11-07T08:43:18.122Z,1019.47
2022-11-07T08:43:48.411Z,1019.49
2022-11-07T08:44:18.927Z,1019.48
2022-11-07T08:44:49.952Z,1019.51
2022-11-07T08:45:20.959Z,1019.51
2022-11-07T08:45:51.482Z,1019.49
2022-11-07T08:46:22.019Z,1019.47
2022-11-07T08:46:52.529Z,1019.49
2022-11-07T08:47:23.083Z,1019.49
2022-11-07T08:47:53.614Z,1019.47
2022-11-07T08:48:24.286Z,1019.47
2022-11-07T08:48:54.818Z,1019.46
2022-11-07T08:49:25.853Z,1019.46
2022-11-07T08:49:56.502Z,1019.46
2022-11-07T08:50:27.007Z,1019.47
2022-11-07T08:50:57.563Z,1019.45
2022-11-07T08:51:28.560Z,1019.49
2022-11-07T08:51:59.122Z,1019.45
2022-11-07T08:52:29.640Z,1019.46
2022-11-07T08:53:02.962Z,1019.48
2022-11-07T08:53:31.160Z,1019.46
2022-11-07T08:54:01.680Z,1019.47
2022-11-07T08:54:32.206Z,1019.45
2022-11-07T08:55:03.214Z,1019.48
2022-11-07T08:55:34.242Z,1019.50
2022-11-07T08:56:05.270Z,1019.49
2022-11-07T08:56:35.812Z,1019.49
2022-11-07T08:57:06.363Z,1019.50
2022-11-07T08:57:37.399Z,1019.49
2022-11-07T08:58:08.407Z,1019.48
2022-11-07T08:58:38.938Z,1019.50
2022-11-07T08:59:09.969Z,1019.50
2022-11-07T08:59:41.001Z,1019.49
2022-11-07T09:00:11.531Z,1019.48
2022-11-07T09:00:42.114Z,1019.52
2022-11-07T09:01:12.738Z,1019.53
2022-11-07T09:02:14.379Z,1019.50
2022-11-07T09:03:18.342Z,1019.50
2022-11-07T09:03:39.208Z,1019.50
2022-11-07T09:03:53.051Z,1019.51
2022-11-07T09:04:16.973Z,1019.49
2022-11-07T09:04:47.683Z,1019.48
2022-11-07T09:05:18.244Z,1019.52
2022-11-07T09:05:49.255Z,1019.50
2022-11-07T09:06:20.291Z,1019.51
2022-11-07T09:06:50.842Z,1019.54
2022-11-07T09:07:21.383Z,1019.51
2022-11-07T09:07:51.902Z,1019.56
2022-11-07T09:08:22.469Z,1019.50
2022-11-07T09:08:52.977Z,1019.49
2022-11-07T09:09:23.482Z,1019.49
2022-11-07T09:09:54.005Z,1019.47
2022-11-07T09:10:25.020Z,1019.50
2022-11-07T09:10:56.025Z,1019.49
2022-11-07T09:11:27.042Z,1019.52
2022-11-07T09:11:58.070Z,1019.52
2022-11-07T09:12:28.615Z,1019.51
2022-11-07T09:12:59.156Z,1019.52
2022-11-07T09:13:30.164Z,1019.50
2022-11-07T09:14:00.688Z,1019.52
2022-11-07T09:14:31.214Z,1019.50
2022-11-07T09:15:01.870Z,1019.48
2022-11-07T09:15:32.361Z,1019.51
2022-11-07T09:16:03.391Z,1019.49
2022-11-07T09:16:34.421Z,1019.52
2022-11-07T09:17:05.463Z,1019.49
2022-11-07T09:17:35.972Z,1019.51
2022-11-07T09:18:06.510Z,1019.55
2022-11-07T09:18:37.564Z,1019.49
2022-11-07T09:19:08.586Z,1019.49
2022-11-07T09:19:39.115Z,1019.50
2022-11-07T09:20:09.641Z,1019.53
2022-11-07T09:20:40.663Z,1019.52
2022-11-07T09:21:11.692Z,1019.52
2022-11-07T09:21:42.708Z,1019.51
2022-11-07T09:22:13.742Z,1019.50
2022-11-07T09:22:44.782Z,1019.52
2022-11-07T09:23:15.714Z,1019.55
2022-11-07T09:23:45.910Z,1019.52
2022-11-07T09:24:16.413Z,1019.56
2022-11-07T09:24:46.934Z,1019.55
2022-11-07T09:25:17.986Z,1019.56
2022-11-07T09:25:49.004Z,1019.58
2022-11-07T09:26:19.551Z,1019.58
2022-11-07T09:26:50.069Z,1019.59
2022-11-07T09:27:20.596Z,1019.57
2022-11-07T09:27:51.121Z,1019.61
2022-11-07T09:28:21.702Z,1019.55
2022-11-07T09:28:55.039Z,1019.57
2022-11-07T09:29:23.016Z,1019.59
2022-11-07T09:29:53.537Z,1019.57
2022-11-07T09:30:24.574Z,1019.56
2022-11-07T09:30:55.102Z,1019.61
2022-11-07T09:31:25.623Z,1019.63
2022-11-07T09:31:56.687Z,1019.63
2022-11-07T09:32:43.794Z,1019.63
2022-11-07T09:32:57.921Z,1019.61
2022-11-07T09:33:28.956Z,1019.60
2022-11-07T09:33:59.480Z,1019.60
2022-11-07T09:34:30.033Z,1019.63
2022-11-07T09:35:04.779Z,1019.61
2022-11-07T09:35:31.575Z,1019.64
2022-11-07T09:36:02.579Z,1019.61
2022-11-07T09:36:33.102Z,1019.63
2022-11-07T09:37:04.139Z,1019.64
2022-11-07T09:37:35.171Z,1019.65
2022-11-07T09:38:05.811Z,1019.69
2022-11-07T09:38:36.317Z,1019.67
2022-11-07T09:39:07.334Z,1019.65
2022-11-07T09:39:37.858Z,1019.70
2022-11-07T09:40:08.887Z,1019.72
2022-11-07T09:40:39.410Z,1019.68
2022-11-07T09:41:10.432Z,1019.67
2022-11-07T09:41:41.454Z,1019.70
2022-11-07T09:42:12.453Z,1019.70
2022-11-07T09:42:42.990Z,1019.74
2022-11-07T09:43:13.911Z,1019.72
2022-11-07T09:43:44.185Z,1019.69
2022-11-07T09:44:14.682Z,1019.73
2022-11-07T09:44:45.710Z,1019.76
2022-11-07T09:45:16.728Z,1019.73
2022-11-07T09:45:47.783Z,1019.72
2022-11-07T09:46:18.300Z,1019.72
2022-11-07T09:46:49.355Z,1019.71
2022-11-07T09:47:20.371Z,1019.74
2022-11-07T09:47:51.409Z,1019.76
2022-11-07T09:48:22.054Z,1019.74
2022-11-07T09:48:52.584Z,1019.73
2022-11-07T09:49:23.598Z,1019.71
2022-11-07T09:49:54.133Z,1019.72
2022-11-07T09:50:24.652Z,1019.72
2022-11-07T09:50:55.221Z,1019.75
2022-11-07T09:51:25.726Z,1019.71
2022-11-07T09:51:56.766Z,1019.74
2022-11-07T09:52:27.290Z,1019.72
2022-11-07T09:52:57.806Z,1019.73
2022-11-07T09:53:28.335Z,1019.74
2022-11-07T09:53:59.365Z,1019.75
2022-11-07T09:54:30.403Z,1019.74
2022-11-07T09:55:00.939Z,1019.74
2022-11-07T09:55:31.999Z,1019.75
2022-11-07T09:56:02.506Z,1019.74
2022-11-07T09:56:33.535Z,1019.75
2022-11-07T09:57:04.528Z,1019.74
2022-11-07T09:57:35.048Z,1019.71
2022-11-07T09:58:05.576Z,1019.71
2022-11-07T09:58:36.604Z,1019.72
2022-11-07T09:59:12.763Z,1019.73
2022-11-07T09:59:37.881Z,1019.70
2022-11-07T10:00:08.414Z,1019.70
2022-11-07T10:00:39.487Z,1019.73
2022-11-07T10:01:10.124Z,1019.68
2022-11-07T10:01:40.770Z,1019.67
2022-11-07T10:02:11.342Z,1019.69
2022-11-07T10:02:41.887Z,1019.67
2022-11-07T10:03:13.244Z,1019.68
2022-11-07T10:04:10.130Z,1019.65
2022-11-07T10:04:30.085Z,1019.65
2022-11-07T10:04:45.362Z,1019.66
2022-11-07T10:05:16.393Z,1019.67
2022-11-07T10:05:47.428Z,1019.64
2022-11-07T10:06:21.618Z,1019.66
2022-11-07T10:06:48.683Z,1019.67
2022-11-07T10:07:19.337Z,1019.63
2022-11-07T10:07:50.106Z,1019.61
2022-11-07T10:08:21.057Z,1019.63
2022-11-07T10:08:51.591Z,1019.61
2022-11-07T10:09:23.021Z,1019.62
2022-11-07T10:09:53.402Z,1019.65
2022-11-07T10:10:24.139Z,1019.62
2022-11-07T10:10:55.263Z,1019.63
2022-11-07T10:11:25.935Z,1019.66
2022-11-07T10:11:55.951Z,1019.66
2022-11-07T10:12:26.479Z,1019.65
2022-11-07T10:12:57.506Z,1019.63
2022-11-07T10:13:28.022Z,1019.64
2022-11-07T10:13:59.088Z,1019.70
2022-11-07T10:14:29.633Z,1019.59
2022-11-07T10:15:00.639Z,1019.60
2022-11-07T10:15:31.168Z,1019.63
2022-11-07T10:16:01.711Z,1019.66
2022-11-07T10:16:32.231Z,1019.67
2022-11-07T10:17:02.759Z,1019.65
2022-11-07T10:17:33.765Z,1019.67
2022-11-07T10:18:04.291Z,1019.64
2022-11-07T10:18:34.848Z,1019.67
2022-11-07T10:19:05.441Z,1019.64
2022-11-07T10:19:35.968Z,1019.71
2022-11-07T10:20:06.499Z,1019.65
2022-11-07T10:20:37.013Z,1019.69
2022-11-07T10:21:35.944Z,1019.70
2022-11-07T10:21:39.408Z,1019.69
2022-11-07T10:22:09.597Z,1019.72
2022-11-07T10:22:40.628Z,1019.72
2022-11-07T10:23:11.652Z,1019.76
2022-11-07T10:23:42.206Z,1019.68
2022-11-07T10:24:12.706Z,1019.72
2022-11-07T10:24:43.255Z,1019.72
2022-11-07T10:25:13.785Z,1019.77
2022-11-07T10:25:44.809Z,1019.73
2022-11-07T10:26:15.837Z,1019.73
2022-11-07T10:26:46.909Z,1019.75
2022-11-07T10:27:17.440Z,1019.71
2022-11-07T10:27:47.980Z,1019.73
2022-11-07T10:28:18.496Z,1019.70
2022-11-07T10:28:49.525Z,1019.69
2022-11-07T10:29:20.043Z,1019.67
2022-11-07T10:29:50.609Z,1019.69
2022-11-07T10:30:21.117Z,1019.75
2022-11-07T10:30:51.638Z,1019.72
2022-11-07T10:31:22.664Z,1019.71
2022-11-07T10:31:53.185Z,1019.72
2022-11-07T10:32:24.240Z,1019.68
2022-11-07T10:32:54.743Z,1019.69
2022-11-07T10:33:25.817Z,1019.75
2022-11-07T10:33:56.315Z,1019.70
2022-11-07T10:34:26.848Z,1019.69
2022-11-07T10:34:57.344Z,1019.67
2022-11-07T10:35:27.891Z,1019.71
2022-11-07T10:35:58.416Z,1019.71
2022-11-07T10:36:28.933Z,1019.67
2022-11-07T10:36:59.965Z,1019.67
2022-11-07T10:37:31.012Z,1019.65
2022-11-07T10:38:01.530Z,1019.71
2022-11-07T10:38:32.570Z,1019.70
2022-11-07T10:39:03.587Z,1019.66
2022-11-07T10:39:34.105Z,1019.67
2022-11-07T10:40:09.589Z,1019.69
2022-11-07T10:40:35.863Z,1019.71
2022-11-07T10:41:06.391Z,1019.69
2022-11-07T10:41:37.441Z,1019.69
2022-11-07T10:42:07.990Z,1019.68
2022-11-07T10:42:38.538Z,1019.68
2022-11-07T10:43:09.062Z,1019.70
2022-11-07T10:43:40.104Z,1019.70
2022-11-07T10:44:10.688Z,1019.67
2022-11-07T10:44:41.201Z,1019.67
2022-11-07T10:45:11.743Z,1019.67
2022-11-07T10:45:42.251Z,1019.70
2022-11-07T10:46:12.779Z,1019.70
2022-11-07T10:46:43.805Z,1019.67
2022-11-07T10:47:14.839Z,1019.68
2022-11-07T10:47:45.896Z,1019.66
2022-11-07T10:48:16.838Z,1019.71
2022-11-07T10:48:46.976Z,1019.70
2022-11-07T10:49:17.508Z,1019.69
2022-11-07T10:49:48.026Z,1019.71
2022-11-07T10:50:18.607Z,1019.72
2022-11-07T10:50:49.106Z,1019.71
2022-11-07T10:51:20.147Z,1019.71
2022-11-07T10:51:50.672Z,1019.71
2022-11-07T10:52:21.205Z,1019.71
2022-11-07T10:52:52.221Z,1019.73
2022-11-07T10:53:23.255Z,1019.70
2022-11-07T10:53:53.783Z,1019.73
2022-11-07T10:54:24.308Z,1019.72
2022-11-07T10:54:54.837Z,1019.69
2022-11-07T10:55:25.848Z,1019.68
2022-11-07T10:55:56.870Z,1019.73
2022-11-07T10:56:27.408Z,1019.71
2022-11-07T10:56:58.439Z,1019.67
2022-11-07T10:57:29.482Z,1019.71
2022-11-07T10:58:00.006Z,1019.68
2022-11-07T10:58:31.037Z,1019.70
2022-11-07T10:59:02.057Z,1019.68
2022-11-07T10:59:36.387Z,1019.70
2022-11-07T11:00:03.643Z,1019.70
2022-11-07T11:00:34.193Z,1019.68
2022-11-07T11:01:04.740Z,1019.72
2022-11-07T11:01:35.375Z,1019.70
2022-11-07T11:02:05.985Z,1019.73
2022-11-07T11:02:36.493Z,1019.70
2022-11-07T11:03:07.519Z,1019.74
2022-11-07T11:03:44.405Z,1019.66
2022-11-07T11:04:08.786Z,1019.66
2022-11-07T11:04:39.336Z,1019.67
2022-11-07T11:05:09.858Z,1019.65
2022-11-07T11:05:40.375Z,1019.65
2022-11-07T11:06:10.912Z,1019.65
2022-11-07T11:06:41.920Z,1019.64
2022-11-07T11:07:12.962Z,1019.64
2022-11-07T11:07:43.976Z,1019.61
2022-11-07T11:08:14.821Z,1019.61
2022-11-07T11:08:45.028Z,1019.59
2022-11-07T11:09:15.555Z,1019.62
2022-11-07T11:09:46.586Z,1019.60
2022-11-07T11:10:17.227Z,1019.62
2022-11-07T11:10:47.710Z,1019.63
2022-11-07T11:11:18.748Z,1019.64
2022-11-07T11:11:49.265Z,1019.64
2022-11-07T11:12:20.291Z,1019.64
2022-11-07T11:12:50.806Z,1019.62
2022-11-07T11:13:21.833Z,1019.62
2022-11-07T11:13:52.862Z,1019.61
2022-11-07T11:14:23.393Z,1019.62
2022-11-07T11:14:53.962Z,1019.60
2022-11-07T11:15:24.460Z,1019.59
2022-11-07T11:15:55.508Z,1019.62
2022-11-07T11:16:26.521Z,1019.59
2022-11-07T11:16:57.151Z,1019.58
2022-11-07T11:17:27.699Z,1019.58
2022-11-07T11:17:58.184Z,1019.58
2022-11-07T11:18:29.243Z,1019.58
2022-11-07T11:18:59.763Z,1019.56
2022-11-07T11:19:30.791Z,1019.54
2022-11-07T11:20:01.834Z,1019.55
2022-11-07T11:20:32.371Z,1019.53
2022-11-07T11:21:02.886Z,1019.53
2022-11-07T11:21:33.909Z,1019.53
2022-11-07T11:22:09.434Z,1019.58
2022-11-07T11:22:35.183Z,1019.53
2022-11-07T11:23:05.702Z,1019.52
2022-11-07T11:23:36.742Z,1019.54
2022-11-07T11:24:07.797Z,1019.57
2022-11-07T11:24:38.310Z,1019.55
2022-11-07T11:25:08.837Z,1019.56
2022-11-07T11:25:39.401Z,1019.52
2022-11-07T11:26:09.928Z,1019.54
2022-11-07T11:26:40.978Z,1019.52
2022-11-07T11:27:12.001Z,1019.54
2022-11-07T11:27:43.020Z,1019.52
2022-11-07T11:28:14.017Z,1019.51
2022-11-07T11:28:44.265Z,1019.50
2022-11-07T11:29:15.294Z,1019.50
2022-11-07T11:29:46.296Z,1019.50
2022-11-07T11:30:17.318Z,1019.48
2022-11-07T11:30:48.369Z,1019.46
2022-11-07T11:31:18.969Z,1019.45
2022-11-07T11:31:49.450Z,1019.42
2022-11-07T11:32:19.989Z,1019.40
2022-11-07T11:32:51.020Z,1019.41
2022-11-07T11:33:21.540Z,1019.39
2022-11-07T11:33:52.079Z,1019.41
2022-11-07T11:34:23.103Z,1019.39
2022-11-07T11:34:54.127Z,1019.38
2022-11-07T11:35:24.656Z,1019.37
2022-11-07T11:35:55.179Z,1019.36
2022-11-07T11:36:25.738Z,1019.33
2022-11-07T11:36:56.255Z,1019.33
2022-11-07T11:37:27.341Z,1019.33
2022-11-07T11:37:57.877Z,1019.31
2022-11-07T11:38:28.376Z,1019.30
2022-11-07T11:39:00.002Z,1019.29
2022-11-07T11:39:29.994Z,1019.29
2022-11-07T11:40:01.036Z,1019.27
2022-11-07T11:40:31.584Z,1019.28
2022-11-07T11:41:07.695Z,1019.26
2022-11-07T11:41:32.816Z,1019.28
2022-11-07T11:42:03.355Z,1019.27
2022-11-07T11:42:34.379Z,1019.25
2022-11-07T11:43:05.389Z,1019.23
2022-11-07T11:43:35.924Z,1019.22
2022-11-07T11:44:06.962Z,1019.22
2022-11-07T11:44:37.977Z,1019.20
2022-11-07T11:45:08.526Z,1019.18
2022-11-07T11:45:39.086Z,1019.20
2022-11-07T11:46:09.643Z,1019.17
2022-11-07T11:46:40.186Z,1019.16
2022-11-07T11:47:10.662Z,1019.15
2022-11-07T11:47:41.684Z,1019.15
2022-11-07T11:48:12.214Z,1019.16
2022-11-07T11:48:43.247Z,1019.14
2022-11-07T11:49:14.283Z,1019.11
2022-11-07T11:49:45.307Z,1019.10
2022-11-07T11:50:16.340Z,1019.14
2022-11-07T11:50:46.894Z,1019.16
2022-11-07T11:51:17.393Z,1019.16
2022-11-07T11:51:48.390Z,1019.22
2022-11-07T11:52:18.911Z,1019.21
2022-11-07T11:52:49.951Z,1019.21
2022-11-07T11:53:20.980Z,1019.21
2022-11-07T11:53:52.034Z,1019.22
2022-11-07T11:54:22.544Z,1019.21
2022-11-07T11:54:53.570Z,1019.23
2022-11-07T11:55:24.079Z,1019.24
2022-11-07T11:55:55.137Z,1019.21
2022-11-07T11:56:25.640Z,1019.19
2022-11-07T11:56:56.211Z,1019.22
2022-11-07T11:57:26.715Z,1019.24
2022-11-07T11:57:57.246Z,1019.22
2022-11-07T11:58:28.285Z,1019.21
2022-11-07T11:58:59.319Z,1019.22
2022-11-07T11:59:29.852Z,1019.23
2022-11-07T12:00:00.877Z,1019.24
2022-11-07T12:00:31.414Z,1019.25
2022-11-07T12:01:01.934Z,1019.23
2022-11-07T12:01:32.463Z,1019.23
2022-11-07T12:02:03.094Z,1019.22
2022-11-07T12:02:33.837Z,1019.20
2022-11-07T12:03:04.381Z,1019.21
2022-11-07T12:03:35.427Z,1019.19
2022-11-07T12:04:08.099Z,1019.22
2022-11-07T12:04:36.829Z,1019.21
2022-11-07T12:05:07.380Z,1019.23
2022-11-07T12:05:38.452Z,1019.26
2022-11-07T12:06:08.971Z,1019.28
2022-11-07T12:06:39.470Z,1019.22
2022-11-07T12:07:09.999Z,1019.23
2022-11-07T12:07:40.516Z,1019.24
2022-11-07T12:08:11.041Z,1019.23
2022-11-07T12:08:41.634Z,1019.25
2022-11-07T12:09:17.339Z,1019.28
2022-11-07T12:09:42.880Z,1019.27
2022-11-07T12:10:13.482Z,1019.23
2022-11-07T12:10:44.005Z,1019.24
2022-11-07T12:11:14.592Z,1019.21
2022-11-07T12:11:45.067Z,1019.25
2022-11-07T12:12:16.106Z,1019.25
2022-11-07T12:12:46.854Z,1019.23
2022-11-07T12:13:17.852Z,1019.21
2022-11-07T12:13:49.296Z,1019.20
2022-11-07T12:14:18.668Z,1019.17
2022-11-07T12:14:54.412Z,1019.14
2022-11-07T12:15:20.428Z,1019.16
2022-11-07T12:15:50.955Z,1019.16
2022-11-07T12:16:21.951Z,1019.15
2022-11-07T12:16:52.959Z,1019.14
2022-11-07T12:17:23.501Z,1019.15
2022-11-07T12:17:54.001Z,1019.16
2022-11-07T12:18:24.525Z,1019.14
2022-11-07T12:18:55.071Z,1019.15
2022-11-07T12:19:26.511Z,1019.18
2022-11-07T12:19:56.494Z,1019.13
2022-11-07T12:20:27.530Z,1019.15
2022-11-07T12:20:58.040Z,1019.12
2022-11-07T12:21:28.583Z,1019.10
2022-11-07T12:21:59.104Z,1019.13
2022-11-07T12:22:29.651Z,1019.14
2022-11-07T12:23:00.179Z,1019.11
2022-11-07T12:23:30.706Z,1019.12
2022-11-07T12:24:01.719Z,1019.15
2022-11-07T12:24:32.246Z,1019.10
2022-11-07T12:25:03.272Z,1019.10
2022-11-07T12:25:34.306Z,1019.08
2022-11-07T12:26:05.334Z,1019.10
2022-11-07T12:26:36.366Z,1019.08
2022-11-07T12:27:06.888Z,1019.09
2022-11-07T12:27:37.940Z,1019.10
2022-11-07T12:28:08.446Z,1019.07
2022-11-07T12:28:39.481Z,1019.07
2022-11-07T12:29:10.032Z,1019.07
2022-11-07T12:29:40.545Z,1019.08
2022-11-07T12:30:11.568Z,1019.08
2022-11-07T12:30:42.576Z,1019.08
2022-11-07T12:31:13.616Z,1019.08
2022-11-07T12:31:44.661Z,1019.09
2022-11-07T12:32:15.194Z,1019.10
2022-11-07T12:32:46.259Z,1019.10
2022-11-07T12:33:17.821Z,1019.09
2022-11-07T12:33:48.011Z,1019.08
2022-11-07T12:34:18.549Z,1019.08
2022-11-07T12:34:49.570Z,1019.08
2022-11-07T12:35:20.604Z,1019.08
2022-11-07T12:35:51.632Z,1019.07
2022-11-07T12:36:22.667Z,1019.04
2022-11-07T12:36:53.222Z,1019.03
2022-11-07T12:37:23.747Z,1019.01
2022-11-07T12:37:54.789Z,1019.00
2022-11-07T12:38:25.324Z,1018.98
2022-11-07T12:38:55.845Z,1018.95
2022-11-07T12:39:26.395Z,1018.99
2022-11-07T12:39:57.411Z,1018.98
2022-11-07T12:40:27.947Z,1018.98
2022-11-07T12:40:58.473Z,1018.99
2022-11-07T12:41:29.013Z,1019.01
2022-11-07T12:41:59.549Z,1018.99
2022-11-07T12:42:30.070Z,1018.99
2022-11-07T12:43:00.614Z,1018.97
2022-11-07T12:43:31.630Z,1018.98
2022-11-07T12:44:02.155Z,1018.96
2022-11-07T12:44:33.213Z,1018.96
2022-11-07T12:45:03.731Z,1018.96
2022-11-07T12:45:34.258Z,1018.97
2022-11-07T12:46:05.418Z,1018.96
2022-11-07T12:46:35.910Z,1018.97
2022-11-07T12:47:06.441Z,1018.97
2022-11-07T12:47:36.965Z,1019.01
2022-11-07T12:48:13.109Z,1019.00
2022-11-07T12:48:38.223Z,1018.98
2022-11-07T12:49:08.764Z,1018.98
2022-11-07T12:49:39.309Z,1018.98
2022-11-07T12:50:10.318Z,1018.97
2022-11-07T12:50:40.845Z,1018.97
2022-11-07T12:51:11.383Z,1018.98
2022-11-07T12:51:41.922Z,1018.99
2022-11-07T12:52:12.441Z,1019.00
2022-11-07T12:52:43.469Z,1018.98
2022-11-07T12:53:14.245Z,1018.98
2022-11-07T12:53:44.964Z,1018.99
2022-11-07T12:54:16.760Z,1019.00
2022-11-07T12:54:46.287Z,1018.98
2022-11-07T12:55:16.789Z,1018.99
2022-11-07T12:55:47.322Z,1019.01
2022-11-07T12:56:17.836Z,1019.00
2022-11-07T12:56:48.864Z,1018.99
2022-11-07T12:57:19.889Z,1019.01
2022-11-07T12:57:50.405Z,1019.02
2022-11-07T12:58:20.928Z,1019.02
2022-11-07T12:58:51.468Z,1019.05
2022-11-07T12:59:22.017Z,1019.03
2022-11-07T12:59:53.068Z,1019.03
2022-11-07T13:00:29.204Z,1019.03
2022-11-07T13:00:54.366Z,1019.03
2022-11-07T13:01:25.038Z,1019.03
2022-11-07T13:01:55.786Z,1019.04
2022-11-07T13:02:26.476Z,1019.05
2022-11-07T13:02:56.989Z,1019.03
2022-11-07T13:03:27.524Z,1019.04
2022-11-07T13:03:58.036Z,1019.03
2022-11-07T13:04:28.550Z,1019.03
2022-11-07T13:04:59.066Z,1019.03
2022-11-07T13:05:30.102Z,1019.04
2022-11-07T13:06:00.659Z,1019.04
2022-11-07T13:06:31.681Z,1019.05
2022-11-07T13:07:02.749Z,1019.04
2022-11-07T13:07:33.263Z,1019.05
2022-11-07T13:08:04.288Z,1019.03
2022-11-07T13:08:35.303Z,1019.02
2022-11-07T13:09:05.850Z,1019.03
2022-11-07T13:09:36.375Z,1019.04
2022-11-07T13:10:07.401Z,1019.04
2022-11-07T13:10:38.432Z,1019.03
2022-11-07T13:11:08.986Z,1019.03
2022-11-07T13:11:39.527Z,1019.03
2022-11-07T13:12:10.064Z,1019.01
2022-11-07T13:12:40.545Z,1019.01
2022-11-07T13:13:11.567Z,1019.01
2022-11-07T13:13:42.593Z,1019.01
2022-11-07T13:14:13.627Z,1019.00
2022-11-07T13:14:44.655Z,1018.99
2022-11-07T13:15:15.259Z,1018.99
2022-11-07T13:16:13.745Z,1018.99
2022-11-07T13:16:16.504Z,1018.98
2022-11-07T13:16:47.028Z,1018.97
2022-11-07T13:17:17.561Z,1018.97
2022-11-07T13:17:48.590Z,1018.96
2022-11-07T13:18:19.121Z,1018.97
2022-11-07T13:18:49.666Z,1018.97
2022-11-07T13:19:20.162Z,1018.96
2022-11-07T13:19:50.686Z,1018.96
2022-11-07T13:20:21.219Z,1018.97
2022-11-07T13:20:51.766Z,1018.95
2022-11-07T13:21:22.282Z,1018.94
2022-11-07T13:21:53.338Z,1018.94
2022-11-07T13:22:23.860Z,1018.94
2022-11-07T13:22:54.910Z,1018.95
2022-11-07T13:23:25.433Z,1018.96
2022-11-07T13:23:55.967Z,1018.94
2022-11-07T13:24:26.988Z,1018.94
2022-11-07T13:25:01.665Z,1018.94
2022-11-07T13:25:28.844Z,1018.95
2022-11-07T13:25:59.370Z,1018.94
2022-11-07T13:26:47.458Z,1018.93
2022-11-07T13:27:00.616Z,1018.94
2022-11-07T13:27:31.644Z,1018.94
2022-11-07T13:28:02.173Z,1018.94
2022-11-07T13:28:33.211Z,1018.96
2022-11-07T13:29:04.245Z,1018.92
2022-11-07T13:29:34.772Z,1018.93
2022-11-07T13:30:05.342Z,1018.92
2022-11-07T13:30:35.858Z,1018.93
2022-11-07T13:31:07.916Z,1018.93
2022-11-07T13:31:37.001Z,1018.94
2022-11-07T13:32:08.009Z,1018.93
2022-11-07T13:32:39.038Z,1018.96
2022-11-07T13:33:09.659Z,1018.96
2022-11-07T13:33:40.172Z,1018.95
2022-11-07T13:34:10.743Z,1018.96
2022-11-07T13:34:41.735Z,1018.97
2022-11-07T13:35:12.298Z,1018.97
2022-11-07T13:35:42.798Z,1018.96
2022-11-07T13:36:13.840Z,1018.94
2022-11-07T13:36:44.373Z,1018.94
2022-11-07T13:37:14.919Z,1018.94